Lucy Furnace, Pennsylvania
Current Conditions -  °F | °C
As of 5:53 PM on Thursday 23 Oct 2014 (Local Time) from KAOO Reporting Station
Overcast Overcast  
Wind Chill: 59°   Ceiling: 5000
Heat Index: 59°   Visibility: 10mi
Dew Point: 39°   Wind: 17mph
Humidity: 48%   Direction: 320°NW
Pressure: 29.94"   Gusts: 28mph
Location:  40.4281°N, 77.8329°W
Report Text: KAOO 232153Z AUTO 32015G24KT 10SM OVC050 15/04 A2994 RMK AO2 SLP140 T01500039
Loading
Personal Weather Stations






























Interactive Weather Map
Tropical Storm Tracking
New forecast layout! Learn more

10-Day Weather Forecast

Advertisements
Track Severe Weather on mobile